Vulcan, Michigan
Current Conditions -  °F | °C
As of 4:54 PM on Saturday 25 Oct 2014 (Local Time) from KIMT Reporting Station
Clear Clear  
Wind Chill: 59°   Ceiling: Unl
Heat Index: 59°   Visibility: 10mi
Dew Point: 22°   Wind: 18mph
Humidity: 24%   Direction: 300°WNW
Pressure: 29.77"   Gusts: 28mph
Location:  45.78°N, 87.86°W
Report Text: KIMT 252154Z AUTO 30016G24KT 10SM CLR 15/M06 A2977 RMK AO2 PK WND 27030/2117 SLP083 T01501056
Loading
Personal Weather Stations






























Interactive Weather Map
Tropical Storm Tracking
New forecast layout! Learn more

10-Day Weather Forecast

Advertisements
Track Severe Weather on mobile